sensor_id;sensor_type;location;lat;lon;timestamp;P1;durP1;ratioP1;P2;durP2;ratioP2
71975;SDS011;68326;52.124;5.424;2023-12-04T00:01:46;12.73;;;4.35;;
71975;SDS011;68326;52.124;5.424;2023-12-04T00:04:14;10.82;;;4.88;;
71975;SDS011;68326;52.124;5.424;2023-12-04T00:06:41;15.27;;;5.03;;
71975;SDS011;68326;52.124;5.424;2023-12-04T00:09:08;12.45;;;3.97;;
71975;SDS011;68326;52.124;5.424;2023-12-04T00:11:34;14.57;;;4.93;;
71975;SDS011;68326;52.124;5.424;2023-12-04T00:14:01;11.73;;;4.25;;
71975;SDS011;68326;52.124;5.424;2023-12-04T00:16:27;12.00;;;4.55;;
71975;SDS011;68326;52.124;5.424;2023-12-04T00:18:54;13.27;;;4.30;;
71975;SDS011;68326;52.124;5.424;2023-12-04T00:21:21;13.45;;;5.10;;
71975;SDS011;68326;52.124;5.424;2023-12-04T00:23:48;15.85;;;5.75;;
71975;SDS011;68326;52.124;5.424;2023-12-04T00:26:15;14.32;;;5.90;;
71975;SDS011;68326;52.124;5.424;2023-12-04T00:28:42;12.95;;;4.88;;
71975;SDS011;68326;52.124;5.424;2023-12-04T00:31:08;11.53;;;4.57;;
71975;SDS011;68326;52.124;5.424;2023-12-04T00:33:35;13.52;;;5.00;;
71975;SDS011;68326;52.124;5.424;2023-12-04T00:36:02;14.05;;;4.80;;
71975;SDS011;68326;52.124;5.424;2023-12-04T00:38:29;14.18;;;5.35;;
71975;SDS011;68326;52.124;5.424;2023-12-04T00:40:55;14.25;;;5.22;;
71975;SDS011;68326;52.124;5.424;2023-12-04T00:43:22;15.07;;;4.93;;
71975;SDS011;68326;52.124;5.424;2023-12-04T00:45:48;14.85;;;5.28;;
71975;SDS011;68326;52.124;5.424;2023-12-04T00:48:15;14.70;;;5.13;;
71975;SDS011;68326;52.124;5.424;2023-12-04T00:50:41;16.33;;;5.35;;
71975;SDS011;68326;52.124;5.424;2023-12-04T00:53:08;17.00;;;5.07;;
71975;SDS011;68326;52.124;5.424;2023-12-04T00:55:34;16.30;;;5.60;;
71975;SDS011;68326;52.124;5.424;2023-12-04T00:58:01;14.88;;;5.13;;
71975;SDS011;68326;52.124;5.424;2023-12-04T01:00:28;13.65;;;4.35;;
71975;SDS011;68326;52.124;5.424;2023-12-04T01:02:55;16.67;;;5.03;;
71975;SDS011;68326;52.124;5.424;2023-12-04T01:05:21;14.32;;;5.95;;
71975;SDS011;68326;52.124;5.424;2023-12-04T01:07:48;15.53;;;4.93;;
71975;SDS011;68326;52.124;5.424;2023-12-04T01:10:14;15.57;;;5.07;;
71975;SDS011;68326;52.124;5.424;2023-12-04T01:12:41;14.45;;;5.60;;
71975;SDS011;68326;52.124;5.424;2023-12-04T01:15:08;15.77;;;5.68;;
71975;SDS011;68326;52.124;5.424;2023-12-04T01:17:35;12.40;;;4.82;;
71975;SDS011;68326;52.124;5.424;2023-12-04T01:20:02;16.50;;;5.10;;
71975;SDS011;68326;52.124;5.424;2023-12-04T01:22:28;15.05;;;5.47;;
71975;SDS011;68326;52.124;5.424;2023-12-04T01:24:55;14.07;;;5.35;;
71975;SDS011;68326;52.124;5.424;2023-12-04T01:27:22;13.27;;;5.05;;
71975;SDS011;68326;52.124;5.424;2023-12-04T01:29:48;16.27;;;6.07;;
71975;SDS011;68326;52.124;5.424;2023-12-04T01:32:15;16.03;;;6.03;;
71975;SDS011;68326;52.124;5.424;2023-12-04T01:34:42;16.42;;;5.57;;
71975;SDS011;68326;52.124;5.424;2023-12-04T01:37:08;14.68;;;6.22;;
71975;SDS011;68326;52.124;5.424;2023-12-04T01:39:35;14.32;;;5.15;;
71975;SDS011;68326;52.124;5.424;2023-12-04T01:42:02;17.17;;;5.40;;
71975;SDS011;68326;52.124;5.424;2023-12-04T01:44:28;17.30;;;5.27;;
71975;SDS011;68326;52.124;5.424;2023-12-04T01:46:55;14.35;;;5.38;;
71975;SDS011;68326;52.124;5.424;2023-12-04T01:49:22;13.27;;;5.25;;
71975;SDS011;68326;52.124;5.424;2023-12-04T01:51:50;17.33;;;6.10;;
71975;SDS011;68326;52.124;5.424;2023-12-04T01:54:17;15.20;;;5.55;;
71975;SDS011;68326;52.124;5.424;2023-12-04T01:56:44;14.70;;;5.50;;
71975;SDS011;68326;52.124;5.424;2023-12-04T01:59:10;15.95;;;5.70;;
71975;SDS011;68326;52.124;5.424;2023-12-04T02:01:37;13.73;;;5.05;;
71975;SDS011;68326;52.124;5.424;2023-12-04T02:04:04;15.38;;;5.40;;
71975;SDS011;68326;52.124;5.424;2023-12-04T02:06:30;18.48;;;5.93;;
71975;SDS011;68326;52.124;5.424;2023-12-04T02:08:58;17.97;;;6.07;;
71975;SDS011;68326;52.124;5.424;2023-12-04T02:11:24;14.95;;;5.80;;
71975;SDS011;68326;52.124;5.424;2023-12-04T02:13:52;14.15;;;5.05;;
71975;SDS011;68326;52.124;5.424;2023-12-04T02:16:18;14.63;;;5.65;;
71975;SDS011;68326;52.124;5.424;2023-12-04T02:18:47;15.18;;;5.93;;
71975;SDS011;68326;52.124;5.424;2023-12-04T02:21:14;12.77;;;5.33;;
71975;SDS011;68326;52.124;5.424;2023-12-04T02:23:41;16.52;;;5.53;;
71975;SDS011;68326;52.124;5.424;2023-12-04T02:26:13;15.63;;;5.60;;
71975;SDS011;68326;52.124;5.424;2023-12-04T02:28:44;16.40;;;6.13;;
71975;SDS011;68326;52.124;5.424;2023-12-04T02:31:16;15.20;;;5.03;;
71975;SDS011;68326;52.124;5.424;2023-12-04T02:33:44;11.47;;;4.90;;
71975;SDS011;68326;52.124;5.424;2023-12-04T02:36:13;17.08;;;5.68;;
71975;SDS011;68326;52.124;5.424;2023-12-04T02:38:40;14.30;;;5.38;;
71975;SDS011;68326;52.124;5.424;2023-12-04T02:41:07;18.17;;;5.68;;
71975;SDS011;68326;52.124;5.424;2023-12-04T02:43:34;15.35;;;5.95;;
71975;SDS011;68326;52.124;5.424;2023-12-04T02:46:00;19.67;;;5.80;;
71975;SDS011;68326;52.124;5.424;2023-12-04T02:48:27;14.02;;;5.88;;
71975;SDS011;68326;52.124;5.424;2023-12-04T02:50:53;15.13;;;5.20;;
71975;SDS011;68326;52.124;5.424;2023-12-04T02:53:20;13.77;;;5.47;;
71975;SDS011;68326;52.124;5.424;2023-12-04T02:55:46;14.50;;;5.15;;
71975;SDS011;68326;52.124;5.424;2023-12-04T02:58:13;15.20;;;5.10;;
71975;SDS011;68326;52.124;5.424;2023-12-04T03:00:39;15.30;;;5.28;;
71975;SDS011;68326;52.124;5.424;2023-12-04T03:03:06;14.68;;;5.35;;
71975;SDS011;68326;52.124;5.424;2023-12-04T03:05:32;15.98;;;5.18;;
71975;SDS011;68326;52.124;5.424;2023-12-04T03:07:59;17.30;;;5.88;;
71975;SDS011;68326;52.124;5.424;2023-12-04T03:10:25;16.23;;;5.53;;
71975;SDS011;68326;52.124;5.424;2023-12-04T03:12:52;14.98;;;5.55;;
71975;SDS011;68326;52.124;5.424;2023-12-04T03:15:19;14.75;;;5.05;;
71975;SDS011;68326;52.124;5.424;2023-12-04T03:17:46;16.27;;;5.85;;
71975;SDS011;68326;52.124;5.424;2023-12-04T03:20:12;20.42;;;6.20;;
71975;SDS011;68326;52.124;5.424;2023-12-04T03:22:39;17.30;;;6.30;;
71975;SDS011;68326;52.124;5.424;2023-12-04T03:25:05;14.32;;;5.45;;
71975;SDS011;68326;52.124;5.424;2023-12-04T03:27:32;16.98;;;5.43;;
71975;SDS011;68326;52.124;5.424;2023-12-04T03:29:59;19.08;;;6.35;;
71975;SDS011;68326;52.124;5.424;2023-12-04T03:32:26;17.15;;;5.97;;
71975;SDS011;68326;52.124;5.424;2023-12-04T03:34:52;15.73;;;5.37;;
71975;SDS011;68326;52.124;5.424;2023-12-04T03:37:19;11.88;;;4.60;;
71975;SDS011;68326;52.124;5.424;2023-12-04T03:39:45;16.10;;;5.28;;
71975;SDS011;68326;52.124;5.424;2023-12-04T03:42:12;14.35;;;5.45;;
71975;SDS011;68326;52.124;5.424;2023-12-04T03:44:38;16.75;;;5.63;;
71975;SDS011;68326;52.124;5.424;2023-12-04T03:47:05;15.53;;;5.43;;
71975;SDS011;68326;52.124;5.424;2023-12-04T03:49:31;14.38;;;5.28;;
71975;SDS011;68326;52.124;5.424;2023-12-04T03:51:58;11.48;;;4.88;;
71975;SDS011;68326;52.124;5.424;2023-12-04T03:54:24;14.00;;;4.97;;
71975;SDS011;68326;52.124;5.424;2023-12-04T03:56:51;12.13;;;4.50;;
71975;SDS011;68326;52.124;5.424;2023-12-04T03:59:17;17.00;;;5.57;;
71975;SDS011;68326;52.124;5.424;2023-12-04T04:01:44;13.02;;;4.90;;
71975;SDS011;68326;52.124;5.424;2023-12-04T04:04:10;12.90;;;5.07;;
71975;SDS011;68326;52.124;5.424;2023-12-04T04:06:37;16.10;;;5.75;;
71975;SDS011;68326;52.124;5.424;2023-12-04T04:09:05;12.55;;;4.93;;
71975;SDS011;68326;52.124;5.424;2023-12-04T04:11:32;11.77;;;5.00;;
71975;SDS011;68326;52.124;5.424;2023-12-04T04:13:58;13.07;;;4.50;;
71975;SDS011;68326;52.124;5.424;2023-12-04T04:16:24;15.30;;;5.13;;
71975;SDS011;68326;52.124;5.424;2023-12-04T04:18:51;15.18;;;5.07;;
71975;SDS011;68326;52.124;5.424;2023-12-04T04:21:17;11.23;;;4.55;;
71975;SDS011;68326;52.124;5.424;2023-12-04T04:23:44;12.87;;;5.33;;
71975;SDS011;68326;52.124;5.424;2023-12-04T04:26:10;17.13;;;4.45;;
71975;SDS011;68326;52.124;5.424;2023-12-04T04:28:37;14.05;;;4.82;;
71975;SDS011;68326;52.124;5.424;2023-12-04T04:31:03;18.73;;;4.75;;
71975;SDS011;68326;52.124;5.424;2023-12-04T04:33:30;10.60;;;4.05;;
71975;SDS011;68326;52.124;5.424;2023-12-04T04:35:56;10.37;;;4.13;;
71975;SDS011;68326;52.124;5.424;2023-12-04T04:38:23;10.48;;;3.72;;
71975;SDS011;68326;52.124;5.424;2023-12-04T04:40:49;11.05;;;4.50;;
71975;SDS011;68326;52.124;5.424;2023-12-04T04:43:16;12.80;;;4.55;;
71975;SDS011;68326;52.124;5.424;2023-12-04T04:45:42;11.75;;;4.60;;
71975;SDS011;68326;52.124;5.424;2023-12-04T04:48:09;12.83;;;4.63;;
71975;SDS011;68326;52.124;5.424;2023-12-04T04:50:35;13.32;;;4.20;;
71975;SDS011;68326;52.124;5.424;2023-12-04T04:53:02;14.00;;;4.13;;
71975;SDS011;68326;52.124;5.424;2023-12-04T04:55:28;14.65;;;4.65;;
71975;SDS011;68326;52.124;5.424;2023-12-04T04:58:14;15.48;;;5.28;;
71975;SDS011;68326;52.124;5.424;2023-12-04T05:00:41;12.67;;;4.87;;
71975;SDS011;68326;52.124;5.424;2023-12-04T05:03:07;12.00;;;4.20;;
71975;SDS011;68326;52.124;5.424;2023-12-04T05:05:34;11.38;;;4.35;;
71975;SDS011;68326;52.124;5.424;2023-12-04T05:08:00;10.93;;;3.92;;
71975;SDS011;68326;52.124;5.424;2023-12-04T05:10:27;11.48;;;3.97;;
71975;SDS011;68326;52.124;5.424;2023-12-04T05:12:53;10.93;;;4.70;;
71975;SDS011;68326;52.124;5.424;2023-12-04T05:15:20;11.43;;;4.10;;
71975;SDS011;68326;52.124;5.424;2023-12-04T05:17:46;11.98;;;4.63;;
71975;SDS011;68326;52.124;5.424;2023-12-04T05:20:13;11.90;;;4.55;;
71975;SDS011;68326;52.124;5.424;2023-12-04T05:22:40;15.27;;;5.03;;
71975;SDS011;68326;52.124;5.424;2023-12-04T05:25:06;13.03;;;4.17;;
71975;SDS011;68326;52.124;5.424;2023-12-04T05:27:33;12.43;;;4.43;;
71975;SDS011;68326;52.124;5.424;2023-12-04T05:30:00;11.65;;;4.45;;
71975;SDS011;68326;52.124;5.424;2023-12-04T05:32:26;13.75;;;4.70;;
71975;SDS011;68326;52.124;5.424;2023-12-04T05:34:53;12.40;;;4.63;;
71975;SDS011;68326;52.124;5.424;2023-12-04T05:37:19;11.03;;;4.47;;
71975;SDS011;68326;52.124;5.424;2023-12-04T05:39:46;11.75;;;4.47;;
71975;SDS011;68326;52.124;5.424;2023-12-04T05:42:13;10.88;;;3.78;;
71975;SDS011;68326;52.124;5.424;2023-12-04T05:44:40;8.90;;;3.55;;
71975;SDS011;68326;52.124;5.424;2023-12-04T05:47:06;9.25;;;4.18;;
71975;SDS011;68326;52.124;5.424;2023-12-04T05:49:34;10.13;;;3.37;;
71975;SDS011;68326;52.124;5.424;2023-12-04T05:52:01;12.07;;;4.93;;
71975;SDS011;68326;52.124;5.424;2023-12-04T05:54:28;9.60;;;3.83;;
71975;SDS011;68326;52.124;5.424;2023-12-04T05:56:54;11.43;;;4.00;;
71975;SDS011;68326;52.124;5.424;2023-12-04T05:59:21;10.20;;;4.35;;
71975;SDS011;68326;52.124;5.424;2023-12-04T06:01:47;12.00;;;4.80;;
71975;SDS011;68326;52.124;5.424;2023-12-04T06:04:14;10.20;;;3.90;;
71975;SDS011;68326;52.124;5.424;2023-12-04T06:06:41;11.05;;;4.05;;
71975;SDS011;68326;52.124;5.424;2023-12-04T06:09:07;9.35;;;3.50;;
71975;SDS011;68326;52.124;5.424;2023-12-04T06:11:34;8.55;;;3.55;;
71975;SDS011;68326;52.124;5.424;2023-12-04T06:14:00;10.67;;;3.97;;
71975;SDS011;68326;52.124;5.424;2023-12-04T06:16:27;10.57;;;3.65;;
71975;SDS011;68326;52.124;5.424;2023-12-04T06:18:53;9.38;;;3.90;;
71975;SDS011;68326;52.124;5.424;2023-12-04T06:21:20;11.00;;;3.70;;
71975;SDS011;68326;52.124;5.424;2023-12-04T06:23:46;9.75;;;3.30;;
71975;SDS011;68326;52.124;5.424;2023-12-04T06:26:13;8.20;;;3.17;;
71975;SDS011;68326;52.124;5.424;2023-12-04T06:28:40;8.82;;;3.20;;
71975;SDS011;68326;52.124;5.424;2023-12-04T06:31:07;8.95;;;3.85;;
71975;SDS011;68326;52.124;5.424;2023-12-04T06:33:34;9.77;;;3.72;;
71975;SDS011;68326;52.124;5.424;2023-12-04T06:36:01;6.95;;;3.22;;
71975;SDS011;68326;52.124;5.424;2023-12-04T06:38:28;7.63;;;3.60;;
71975;SDS011;68326;52.124;5.424;2023-12-04T06:40:58;11.10;;;3.58;;
71975;SDS011;68326;52.124;5.424;2023-12-04T06:43:25;9.00;;;3.40;;
71975;SDS011;68326;52.124;5.424;2023-12-04T06:45:51;10.40;;;3.80;;
71975;SDS011;68326;52.124;5.424;2023-12-04T06:48:18;6.45;;;3.22;;
71975;SDS011;68326;52.124;5.424;2023-12-04T06:50:45;7.60;;;3.20;;
71975;SDS011;68326;52.124;5.424;2023-12-04T06:53:12;8.55;;;3.47;;
71975;SDS011;68326;52.124;5.424;2023-12-04T06:55:38;11.05;;;4.25;;
71975;SDS011;68326;52.124;5.424;2023-12-04T06:58:05;9.90;;;4.13;;
71975;SDS011;68326;52.124;5.424;2023-12-04T07:00:32;7.32;;;3.30;;
71975;SDS011;68326;52.124;5.424;2023-12-04T07:02:58;10.63;;;4.17;;
71975;SDS011;68326;52.124;5.424;2023-12-04T07:05:25;9.07;;;3.55;;
71975;SDS011;68326;52.124;5.424;2023-12-04T07:07:51;7.78;;;3.53;;
71975;SDS011;68326;52.124;5.424;2023-12-04T07:10:18;8.48;;;3.00;;
71975;SDS011;68326;52.124;5.424;2023-12-04T07:12:44;8.40;;;3.72;;
71975;SDS011;68326;52.124;5.424;2023-12-04T07:15:11;7.63;;;3.00;;
71975;SDS011;68326;52.124;5.424;2023-12-04T07:17:41;8.30;;;3.40;;
71975;SDS011;68326;52.124;5.424;2023-12-04T07:20:07;8.15;;;3.47;;
71975;SDS011;68326;52.124;5.424;2023-12-04T07:22:34;8.20;;;3.70;;
71975;SDS011;68326;52.124;5.424;2023-12-04T07:25:04;8.48;;;3.70;;
71975;SDS011;68326;52.124;5.424;2023-12-04T07:27:33;10.50;;;3.23;;
71975;SDS011;68326;52.124;5.424;2023-12-04T07:30:01;8.80;;;3.25;;
71975;SDS011;68326;52.124;5.424;2023-12-04T07:32:28;6.85;;;2.92;;
71975;SDS011;68326;52.124;5.424;2023-12-04T07:34:55;10.05;;;3.40;;
71975;SDS011;68326;52.124;5.424;2023-12-04T07:37:21;8.50;;;3.05;;
71975;SDS011;68326;52.124;5.424;2023-12-04T07:39:48;9.47;;;3.77;;
71975;SDS011;68326;52.124;5.424;2023-12-04T07:42:14;7.32;;;3.03;;
71975;SDS011;68326;52.124;5.424;2023-12-04T07:44:41;8.15;;;2.83;;
71975;SDS011;68326;52.124;5.424;2023-12-04T07:47:07;6.97;;;3.20;;
71975;SDS011;68326;52.124;5.424;2023-12-04T07:49:34;7.57;;;3.50;;
71975;SDS011;68326;52.124;5.424;2023-12-04T07:52:00;16.07;;;3.53;;
71975;SDS011;68326;52.124;5.424;2023-12-04T07:54:27;7.93;;;3.20;;
71975;SDS011;68326;52.124;5.424;2023-12-04T07:56:54;10.18;;;3.35;;
71975;SDS011;68326;52.124;5.424;2023-12-04T07:59:21;7.50;;;2.78;;
71975;SDS011;68326;52.124;5.424;2023-12-04T08:01:47;8.35;;;2.97;;
71975;SDS011;68326;52.124;5.424;2023-12-04T08:04:13;8.13;;;2.97;;
71975;SDS011;68326;52.124;5.424;2023-12-04T08:06:40;7.80;;;2.72;;
71975;SDS011;68326;52.124;5.424;2023-12-04T08:09:07;8.95;;;3.85;;
71975;SDS011;68326;52.124;5.424;2023-12-04T08:11:36;6.82;;;3.08;;
71975;SDS011;68326;52.124;5.424;2023-12-04T08:14:03;10.75;;;3.40;;
71975;SDS011;68326;52.124;5.424;2023-12-04T08:16:30;7.70;;;3.10;;
71975;SDS011;68326;52.124;5.424;2023-12-04T08:18:56;8.27;;;3.03;;
71975;SDS011;68326;52.124;5.424;2023-12-04T08:21:23;8.63;;;3.60;;
71975;SDS011;68326;52.124;5.424;2023-12-04T08:23:50;7.90;;;3.05;;
71975;SDS011;68326;52.124;5.424;2023-12-04T08:26:21;10.10;;;3.50;;
71975;SDS011;68326;52.124;5.424;2023-12-04T08:28:51;9.07;;;3.00;;
71975;SDS011;68326;52.124;5.424;2023-12-04T08:31:18;7.18;;;3.38;;
71975;SDS011;68326;52.124;5.424;2023-12-04T08:33:45;7.32;;;2.97;;
71975;SDS011;68326;52.124;5.424;2023-12-04T08:36:12;7.47;;;2.88;;
71975;SDS011;68326;52.124;5.424;2023-12-04T08:38:38;7.55;;;2.83;;
71975;SDS011;68326;52.124;5.424;2023-12-04T08:41:05;6.63;;;2.70;;
71975;SDS011;68326;52.124;5.424;2023-12-04T08:43:32;8.82;;;2.92;;
71975;SDS011;68326;52.124;5.424;2023-12-04T08:45:58;7.28;;;3.15;;
71975;SDS011;68326;52.124;5.424;2023-12-04T08:48:26;7.68;;;3.20;;
71975;SDS011;68326;52.124;5.424;2023-12-04T08:50:54;8.38;;;3.58;;
71975;SDS011;68326;52.124;5.424;2023-12-04T08:53:20;6.33;;;2.77;;
71975;SDS011;68326;52.124;5.424;2023-12-04T08:55:47;7.13;;;3.25;;
71975;SDS011;68326;52.124;5.424;2023-12-04T08:58:13;9.32;;;2.85;;
71975;SDS011;68326;52.124;5.424;2023-12-04T09:00:40;9.30;;;3.22;;
71975;SDS011;68326;52.124;5.424;2023-12-04T09:03:09;7.03;;;3.22;;
71975;SDS011;68326;52.124;5.424;2023-12-04T09:05:47;6.60;;;3.07;;
71975;SDS011;68326;52.124;5.424;2023-12-04T09:08:17;10.25;;;3.42;;
71975;SDS011;68326;52.124;5.424;2023-12-04T09:11:01;7.45;;;2.83;;
71975;SDS011;68326;52.124;5.424;2023-12-04T09:13:47;6.95;;;3.30;;
71975;SDS011;68326;52.124;5.424;2023-12-04T09:16:14;6.68;;;3.05;;
71975;SDS011;68326;52.124;5.424;2023-12-04T09:18:41;6.93;;;3.27;;
71975;SDS011;68326;52.124;5.424;2023-12-04T09:21:08;6.20;;;2.47;;
71975;SDS011;68326;52.124;5.424;2023-12-04T09:23:35;6.38;;;2.83;;
71975;SDS011;68326;52.124;5.424;2023-12-04T09:26:01;9.93;;;3.30;;
71975;SDS011;68326;52.124;5.424;2023-12-04T09:28:28;6.80;;;2.72;;
71975;SDS011;68326;52.124;5.424;2023-12-04T09:30:55;8.37;;;2.90;;
71975;SDS011;68326;52.124;5.424;2023-12-04T09:33:21;7.78;;;3.20;;
71975;SDS011;68326;52.124;5.424;2023-12-04T09:35:48;7.15;;;2.90;;
71975;SDS011;68326;52.124;5.424;2023-12-04T09:38:14;7.65;;;3.10;;
71975;SDS011;68326;52.124;5.424;2023-12-04T09:40:41;7.90;;;2.58;;
71975;SDS011;68326;52.124;5.424;2023-12-04T09:43:07;7.23;;;2.90;;
71975;SDS011;68326;52.124;5.424;2023-12-04T09:45:34;6.50;;;2.97;;
71975;SDS011;68326;52.124;5.424;2023-12-04T09:48:01;6.57;;;2.60;;
71975;SDS011;68326;52.124;5.424;2023-12-04T09:50:29;5.80;;;2.25;;
71975;SDS011;68326;52.124;5.424;2023-12-04T09:52:55;7.97;;;3.05;;
71975;SDS011;68326;52.124;5.424;2023-12-04T09:55:26;7.83;;;3.30;;
71975;SDS011;68326;52.124;5.424;2023-12-04T09:57:52;7.45;;;2.80;;
71975;SDS011;68326;52.124;5.424;2023-12-04T10:00:20;8.27;;;2.80;;
71975;SDS011;68326;52.124;5.424;2023-12-04T10:02:48;6.97;;;2.85;;
71975;SDS011;68326;52.124;5.424;2023-12-04T10:05:15;7.78;;;2.67;;
71975;SDS011;68326;52.124;5.424;2023-12-04T10:07:41;8.60;;;2.70;;
71975;SDS011;68326;52.124;5.424;2023-12-04T10:10:08;8.80;;;2.67;;
71975;SDS011;68326;52.124;5.424;2023-12-04T10:12:35;6.28;;;2.70;;
71975;SDS011;68326;52.124;5.424;2023-12-04T10:15:07;7.07;;;2.55;;
71975;SDS011;68326;52.124;5.424;2023-12-04T10:17:36;7.57;;;3.35;;
71975;SDS011;68326;52.124;5.424;2023-12-04T10:20:10;6.80;;;2.40;;
71975;SDS011;68326;52.124;5.424;2023-12-04T10:22:39;5.18;;;2.58;;
71975;SDS011;68326;52.124;5.424;2023-12-04T10:25:17;6.05;;;2.80;;
71975;SDS011;68326;52.124;5.424;2023-12-04T10:27:47;7.30;;;2.80;;
71975;SDS011;68326;52.124;5.424;2023-12-04T10:30:24;5.10;;;2.20;;
71975;SDS011;68326;52.124;5.424;2023-12-04T10:33:01;5.77;;;2.53;;
71975;SDS011;68326;52.124;5.424;2023-12-04T10:35:29;8.07;;;2.90;;
71975;SDS011;68326;52.124;5.424;2023-12-04T10:37:57;6.72;;;2.42;;
71975;SDS011;68326;52.124;5.424;2023-12-04T10:40:27;6.90;;;2.85;;
71975;SDS011;68326;52.124;5.424;2023-12-04T10:43:10;6.78;;;2.90;;
71975;SDS011;68326;52.124;5.424;2023-12-04T10:45:44;7.03;;;3.10;;
71975;SDS011;68326;52.124;5.424;2023-12-04T10:48:12;8.73;;;2.72;;
71975;SDS011;68326;52.124;5.424;2023-12-04T10:50:45;7.40;;;3.00;;
71975;SDS011;68326;52.124;5.424;2023-12-04T10:53:13;7.07;;;3.10;;
71975;SDS011;68326;52.124;5.424;2023-12-04T10:55:41;8.73;;;3.03;;
71975;SDS011;68326;52.124;5.424;2023-12-04T10:58:09;7.37;;;3.17;;
71975;SDS011;68326;52.124;5.424;2023-12-04T11:00:39;6.78;;;2.80;;
71975;SDS011;68326;52.124;5.424;2023-12-04T11:03:13;6.43;;;2.83;;
71975;SDS011;68326;52.124;5.424;2023-12-04T11:05:43;4.95;;;2.20;;
71975;SDS011;68326;52.124;5.424;2023-12-04T11:08:11;5.88;;;2.70;;
71975;SDS011;68326;52.124;5.424;2023-12-04T11:10:45;6.50;;;2.83;;
71975;SDS011;68326;52.124;5.424;2023-12-04T11:13:32;7.65;;;2.90;;
71975;SDS011;68326;52.124;5.424;2023-12-04T11:16:02;7.88;;;2.95;;
71975;SDS011;68326;52.124;5.424;2023-12-04T11:18:36;8.68;;;3.25;;
71975;SDS011;68326;52.124;5.424;2023-12-04T11:21:08;7.85;;;2.95;;
71975;SDS011;68326;52.124;5.424;2023-12-04T11:23:37;16.60;;;3.40;;
71975;SDS011;68326;52.124;5.424;2023-12-04T11:26:06;8.13;;;3.33;;
71975;SDS011;68326;52.124;5.424;2023-12-04T11:28:35;6.30;;;2.70;;
71975;SDS011;68326;52.124;5.424;2023-12-04T11:31:05;8.57;;;3.30;;
71975;SDS011;68326;52.124;5.424;2023-12-04T11:33:35;9.02;;;3.45;;
71975;SDS011;68326;52.124;5.424;2023-12-04T11:36:10;7.07;;;3.23;;
71975;SDS011;68326;52.124;5.424;2023-12-04T11:38:43;9.45;;;3.60;;
71975;SDS011;68326;52.124;5.424;2023-12-04T11:41:21;7.38;;;3.22;;
71975;SDS011;68326;52.124;5.424;2023-12-04T11:43:54;6.15;;;3.25;;
71975;SDS011;68326;52.124;5.424;2023-12-04T11:46:23;7.18;;;3.05;;
71975;SDS011;68326;52.124;5.424;2023-12-04T11:48:55;9.07;;;3.90;;
71975;SDS011;68326;52.124;5.424;2023-12-04T11:54:10;7.70;;;3.35;;
71975;SDS011;68326;52.124;5.424;2023-12-04T11:56:40;10.65;;;4.30;;
71975;SDS011;68326;52.124;5.424;2023-12-04T11:59:22;9.02;;;3.70;;
71975;SDS011;68326;52.124;5.424;2023-12-04T12:01:54;9.90;;;3.53;;
71975;SDS011;68326;52.124;5.424;2023-12-04T12:04:23;6.93;;;3.38;;
71975;SDS011;68326;52.124;5.424;2023-12-04T12:06:54;10.02;;;3.53;;
71975;SDS011;68326;52.124;5.424;2023-12-04T12:09:21;7.65;;;3.70;;
71975;SDS011;68326;52.124;5.424;2023-12-04T12:11:48;8.23;;;3.58;;
71975;SDS011;68326;52.124;5.424;2023-12-04T12:14:15;12.80;;;3.83;;
71975;SDS011;68326;52.124;5.424;2023-12-04T12:16:47;9.95;;;3.92;;
71975;SDS011;68326;52.124;5.424;2023-12-04T12:19:14;9.80;;;4.28;;
71975;SDS011;68326;52.124;5.424;2023-12-04T12:21:41;8.48;;;3.50;;
71975;SDS011;68326;52.124;5.424;2023-12-04T12:24:08;10.75;;;3.55;;
71975;SDS011;68326;52.124;5.424;2023-12-04T12:26:40;9.17;;;3.23;;
71975;SDS011;68326;52.124;5.424;2023-12-04T12:29:08;9.05;;;3.80;;
71975;SDS011;68326;52.124;5.424;2023-12-04T12:31:35;9.13;;;3.90;;
71975;SDS011;68326;52.124;5.424;2023-12-04T12:34:02;10.85;;;3.97;;
71975;SDS011;68326;52.124;5.424;2023-12-04T12:36:29;9.65;;;3.67;;
71975;SDS011;68326;52.124;5.424;2023-12-04T12:39:02;8.83;;;3.70;;
71975;SDS011;68326;52.124;5.424;2023-12-04T12:41:30;8.60;;;3.58;;
71975;SDS011;68326;52.124;5.424;2023-12-04T12:43:57;10.50;;;4.00;;
71975;SDS011;68326;52.124;5.424;2023-12-04T12:46:24;10.85;;;4.22;;
71975;SDS011;68326;52.124;5.424;2023-12-04T12:48:51;8.73;;;3.80;;
71975;SDS011;68326;52.124;5.424;2023-12-04T12:51:17;6.80;;;3.37;;
71975;SDS011;68326;52.124;5.424;2023-12-04T12:53:44;8.65;;;4.18;;
71975;SDS011;68326;52.124;5.424;2023-12-04T12:56:17;9.43;;;3.80;;
71975;SDS011;68326;52.124;5.424;2023-12-04T12:58:43;9.50;;;4.20;;
71975;SDS011;68326;52.124;5.424;2023-12-04T13:01:10;10.80;;;4.63;;
71975;SDS011;68326;52.124;5.424;2023-12-04T13:03:38;11.00;;;4.27;;
71975;SDS011;68326;52.124;5.424;2023-12-04T13:06:04;8.90;;;3.95;;
71975;SDS011;68326;52.124;5.424;2023-12-04T13:08:31;10.50;;;3.78;;
71975;SDS011;68326;52.124;5.424;2023-12-04T13:10:58;9.23;;;3.95;;
71975;SDS011;68326;52.124;5.424;2023-12-04T13:13:25;8.60;;;3.50;;
71975;SDS011;68326;52.124;5.424;2023-12-04T13:15:53;10.63;;;3.93;;
71975;SDS011;68326;52.124;5.424;2023-12-04T13:18:20;8.93;;;3.95;;
71975;SDS011;68326;52.124;5.424;2023-12-04T13:20:47;7.22;;;3.53;;
71975;SDS011;68326;52.124;5.424;2023-12-04T13:23:13;10.95;;;3.88;;
71975;SDS011;68326;52.124;5.424;2023-12-04T13:25:40;11.15;;;3.85;;
71975;SDS011;68326;52.124;5.424;2023-12-04T13:28:07;8.30;;;3.67;;
71975;SDS011;68326;52.124;5.424;2023-12-04T13:30:37;9.82;;;3.60;;
71975;SDS011;68326;52.124;5.424;2023-12-04T13:33:04;8.20;;;3.42;;
71975;SDS011;68326;52.124;5.424;2023-12-04T13:35:31;9.20;;;3.92;;
71975;SDS011;68326;52.124;5.424;2023-12-04T13:37:58;10.43;;;3.97;;
71975;SDS011;68326;52.124;5.424;2023-12-04T13:40:25;7.97;;;3.87;;
71975;SDS011;68326;52.124;5.424;2023-12-04T13:42:54;11.48;;;4.45;;
71975;SDS011;68326;52.124;5.424;2023-12-04T13:45:39;7.68;;;3.40;;
71975;SDS011;68326;52.124;5.424;2023-12-04T13:48:06;8.90;;;3.80;;
71975;SDS011;68326;52.124;5.424;2023-12-04T13:50:33;7.32;;;3.20;;
71975;SDS011;68326;52.124;5.424;2023-12-04T13:52:59;9.73;;;3.97;;
71975;SDS011;68326;52.124;5.424;2023-12-04T13:55:26;6.22;;;3.28;;
71975;SDS011;68326;52.124;5.424;2023-12-04T13:58:11;7.68;;;3.78;;
71975;SDS011;68326;52.124;5.424;2023-12-04T14:00:58;8.70;;;3.50;;
71975;SDS011;68326;52.124;5.424;2023-12-04T14:03:25;8.43;;;3.80;;
71975;SDS011;68326;52.124;5.424;2023-12-04T14:05:52;8.20;;;3.23;;
71975;SDS011;68326;52.124;5.424;2023-12-04T14:08:20;7.18;;;3.63;;
71975;SDS011;68326;52.124;5.424;2023-12-04T14:10:47;7.72;;;3.55;;
71975;SDS011;68326;52.124;5.424;2023-12-04T14:13:14;7.80;;;3.63;;
71975;SDS011;68326;52.124;5.424;2023-12-04T14:15:40;9.27;;;4.40;;
71975;SDS011;68326;52.124;5.424;2023-12-04T14:18:07;10.83;;;4.00;;
71975;SDS011;68326;52.124;5.424;2023-12-04T14:20:33;9.15;;;3.97;;
71975;SDS011;68326;52.124;5.424;2023-12-04T14:23:00;9.55;;;3.40;;
71975;SDS011;68326;52.124;5.424;2023-12-04T14:25:26;8.65;;;3.78;;
71975;SDS011;68326;52.124;5.424;2023-12-04T14:27:53;10.68;;;3.83;;
71975;SDS011;68326;52.124;5.424;2023-12-04T14:30:20;8.07;;;3.57;;
71975;SDS011;68326;52.124;5.424;2023-12-04T14:32:46;11.50;;;4.35;;
71975;SDS011;68326;52.124;5.424;2023-12-04T14:35:13;7.82;;;3.40;;
71975;SDS011;68326;52.124;5.424;2023-12-04T14:37:41;9.20;;;3.55;;
71975;SDS011;68326;52.124;5.424;2023-12-04T14:40:08;7.68;;;3.53;;
71975;SDS011;68326;52.124;5.424;2023-12-04T14:42:35;11.00;;;3.80;;
71975;SDS011;68326;52.124;5.424;2023-12-04T14:45:02;6.95;;;3.58;;
71975;SDS011;68326;52.124;5.424;2023-12-04T14:47:29;8.30;;;3.80;;